Time;durP1;ratioP1;P1;durP2;ratioP2;P2;SDS_P1;SDS_P2;PMS_P1;PMS_P2;Temp;Humidity;BMP_temperature;BMP_pressure;BME280_temperature;BME280_humidity;BME280_pressure;Samples;Min_cycle;Max_cycle;Signal;HPM_P1;HPM_P2
2021/10/16 00:01:43;;;;;;;19.83;11.43;;;8.40;99.90;;;7.69;99.43;97993.63;5047601;28;20044;-71
2021/10/16 00:04:10;;;;;;;18.45;10.13;;;8.50;99.90;;;7.80;99.32;97985.59;5042369;28;20106;-71
2021/10/16 00:06:37;;;;;;;21.20;13.02;;;8.60;99.90;;;7.74;98.95;97975.41;5049291;28;20128;-72
2021/10/16 00:09:04;;;;;;;24.33;14.23;;;8.60;99.90;;;7.80;99.41;97977.84;5047154;28;20077;-72
2021/10/16 00:11:31;;;;;;;19.05;9.90;;;8.60;99.90;;;7.79;98.82;97965.81;5046924;28;20064;-71
2021/10/16 00:13:59;;;;;;;13.20;8.00;;;8.60;99.90;;;7.71;98.48;97973.75;5048228;28;20132;-71
2021/10/16 00:16:27;;;;;;;9.88;6.53;;;8.60;99.90;;;7.64;97.59;97977.38;5044784;28;20076;-71
2021/10/16 00:18:54;;;;;;;17.50;10.63;;;8.50;99.90;;;7.71;97.81;97973.75;5046525;28;20041;-72
2021/10/16 00:21:21;;;;;;;15.77;9.65;;;8.50;99.90;;;7.80;97.81;97966.66;5047709;28;20478;-72
2021/10/16 00:23:48;;;;;;;16.40;9.55;;;8.50;99.90;;;7.80;97.58;97970.09;5047870;28;20050;-71
2021/10/16 00:26:16;;;;;;;23.48;12.23;;;8.50;99.90;;;7.69;97.46;97961.78;5041524;28;20055;-71
2021/10/16 00:28:42;;;;;;;11.38;7.63;;;8.50;99.90;;;7.47;97.08;97967.44;5044405;28;20425;-71
2021/10/16 00:31:09;;;;;;;13.45;8.30;;;8.40;99.90;;;7.45;96.80;97971.78;5046517;28;20556;-72
2021/10/16 00:33:37;;;;;;;15.65;10.73;;;8.30;99.90;;;7.40;97.04;97976.22;5045256;28;20060;-71
2021/10/16 00:36:04;;;;;;;12.90;8.27;;;8.30;99.90;;;7.31;96.91;97979.03;5045636;28;20071;-71
2021/10/16 00:38:31;;;;;;;14.18;9.63;;;8.20;99.90;;;7.27;96.83;97974.81;5042832;28;20092;-72
2021/10/16 00:40:58;;;;;;;18.50;10.65;;;8.10;99.90;;;7.25;96.75;97972.28;5042503;28;20049;-71
2021/10/16 00:43:25;;;;;;;21.55;11.50;;;8.00;99.90;;;7.13;97.45;97978.53;5040764;28;20037;-72
2021/10/16 00:45:52;;;;;;;24.10;13.77;;;7.90;99.90;;;7.08;97.62;97974.38;5044542;28;20041;-71
2021/10/16 00:48:19;;;;;;;23.90;15.02;;;7.90;99.90;;;6.97;98.22;97972.03;5042922;28;20049;-71
2021/10/16 00:50:47;;;;;;;26.67;14.88;;;7.80;99.90;;;6.98;98.55;97975.44;5040440;28;20073;-71
2021/10/16 00:53:15;;;;;;;24.02;14.73;;;7.70;99.90;;;6.92;98.00;97979.03;5046605;28;20463;-72
2021/10/16 00:55:43;;;;;;;30.27;15.80;;;7.70;99.90;;;6.91;98.30;97978.19;5037289;28;20041;-71
2021/10/16 00:58:11;;;;;;;23.70;13.98;;;7.70;99.90;;;6.85;98.37;97974.88;5047564;28;20134;-72
2021/10/16 01:00:38;;;;;;;26.40;15.45;;;7.60;99.90;;;6.77;98.34;97977.59;5047326;28;20091;-72
2021/10/16 01:03:05;;;;;;;25.48;14.35;;;7.60;99.90;;;6.78;98.20;97973.31;5042430;28;20053;-72
2021/10/16 01:05:34;;;;;;;25.65;14.50;;;7.60;99.90;;;6.73;98.18;97972.53;5041453;28;20045;-71
2021/10/16 01:08:02;;;;;;;21.77;14.70;;;7.50;99.90;;;6.68;98.17;97972.63;5044889;28;20132;-71
2021/10/16 01:10:30;;;;;;;23.90;14.32;;;7.50;99.90;;;6.66;98.01;97967.53;5040261;28;20573;-71
2021/10/16 01:12:58;;;;;;;22.42;13.68;;;7.40;99.90;;;6.62;98.39;97963.31;5039570;28;20041;-71
2021/10/16 01:15:26;;;;;;;22.58;13.88;;;7.40;99.90;;;6.55;97.74;97963.47;5046487;28;20045;-72
2021/10/16 01:17:55;;;;;;;22.40;13.27;;;7.30;99.90;;;6.43;97.35;97956.81;5046266;28;20132;-71
2021/10/16 01:20:24;;;;;;;12.13;8.20;;;7.30;99.90;;;6.39;97.03;97961.19;5046668;28;20077;-72
2021/10/16 01:22:53;;;;;;;33.72;10.68;;;7.30;99.90;;;6.34;96.45;97955.28;5045302;28;20398;-71
2021/10/16 01:25:23;;;;;;;113.60;14.20;;;7.20;99.90;;;6.23;96.67;97954.66;5046047;28;20145;-71
2021/10/16 01:27:51;;;;;;;47.08;12.73;;;7.10;99.90;;;6.08;97.05;97951.47;5038252;28;20133;-71
2021/10/16 01:30:22;;;;;;;22.25;12.93;;;6.90;99.90;;;6.02;97.37;97959.31;5043851;28;20517;-71
2021/10/16 01:32:49;;;;;;;46.15;15.00;;;6.80;99.90;;;5.93;97.86;97958.59;5045706;28;20148;-71
2021/10/16 01:35:16;;;;;;;27.40;14.85;;;6.80;99.90;;;5.86;98.36;97958.72;5045160;28;20057;-71
2021/10/16 01:37:48;;;;;;;23.15;14.25;;;6.70;99.90;;;5.90;99.24;97963.81;5042760;28;20149;-71
2021/10/16 01:40:15;;;;;;;19.83;11.57;;;6.70;99.90;;;5.97;99.10;97965.41;5043950;28;20132;-71
2021/10/16 01:42:43;;;;;;;23.33;13.90;;;6.80;99.90;;;5.92;97.73;97959.47;5038005;28;20072;-72
2021/10/16 01:45:16;;;;;;;25.63;13.90;;;6.70;99.90;;;5.86;98.09;97963.88;5052125;28;20128;-71
2021/10/16 01:47:53;;;;;;;20.95;13.73;;;6.70;99.90;;;5.77;98.03;97965.72;5039201;28;20076;-71
2021/10/16 01:50:22;;;;;;;27.25;15.38;;;6.60;99.90;;;5.73;98.93;97964.09;5043193;28;20489;-71
2021/10/16 01:52:49;;;;;;;22.38;12.60;;;6.50;99.90;;;5.75;98.38;97958.06;5050801;28;20069;-72
2021/10/16 01:55:16;;;;;;;27.45;16.17;;;6.50;99.90;;;5.91;99.51;97953.47;5045581;28;20120;-71
2021/10/16 01:57:45;;;;;;;21.92;13.40;;;6.60;99.90;;;5.76;97.88;97941.72;5047391;28;20079;-71
2021/10/16 02:00:13;;;;;;;24.33;14.55;;;6.60;99.90;;;5.64;97.55;97947.09;5048180;28;20048;-71
2021/10/16 02:02:40;;;;;;;23.92;13.45;;;6.40;99.90;;;5.60;97.25;97954.00;5045254;28;20045;-71
2021/10/16 02:05:08;;;;;;;41.35;11.00;;;6.40;99.90;;;5.47;96.81;97949.91;5048828;28;20063;-71
2021/10/16 02:07:35;;;;;;;26.02;9.70;;;6.30;99.90;;;5.45;96.77;97955.09;5048279;28;20069;-71
2021/10/16 02:10:05;;;;;;;23.83;10.05;;;6.30;99.90;;;5.47;96.38;97951.66;5049187;28;20113;-71
2021/10/16 02:12:32;;;;;;;50.58;14.00;;;6.20;99.90;;;5.36;97.46;97950.13;5040337;28;20553;-71
2021/10/16 02:14:59;;;;;;;18.88;12.65;;;6.10;99.90;;;5.31;97.79;97953.63;5047882;28;20140;-71
2021/10/16 02:17:26;;;;;;;25.50;12.35;;;6.10;99.90;;;5.25;97.63;97957.16;5051012;28;20172;-72
2021/10/16 02:19:53;;;;;;;25.55;12.88;;;6.00;99.90;;;5.19;97.71;97959.81;5046658;28;20549;-71
2021/10/16 02:22:20;;;;;;;24.33;13.10;;;6.00;99.90;;;5.17;98.34;97959.81;5050297;28;20120;-71
2021/10/16 02:24:47;;;;;;;17.58;9.77;;;6.00;99.90;;;5.13;97.79;97954.75;5050062;28;20143;-71
2021/10/16 02:27:14;;;;;;;19.77;11.52;;;6.00;99.90;;;5.06;96.84;97959.13;5047599;28;20151;-73
2021/10/16 02:29:41;;;;;;;19.88;11.93;;;5.90;99.90;;;4.92;97.25;97956.75;5043114;28;20142;-71
2021/10/16 02:32:08;;;;;;;22.92;12.00;;;5.80;99.90;;;4.95;97.65;97943.88;5042004;28;20065;-73
2021/10/16 02:34:36;;;;;;;18.02;10.68;;;5.80;99.90;;;4.94;97.54;97947.28;5049172;28;20076;-73
2021/10/16 02:37:03;;;;;;;12.40;8.45;;;5.90;99.90;;;5.01;96.97;97946.31;5048046;28;20063;-72
2021/10/16 02:39:30;;;;;;;26.13;12.48;;;5.90;99.90;;;4.99;96.80;97942.91;5046687;28;20182;-71
2021/10/16 02:41:59;;;;;;;21.77;11.35;;;5.90;99.90;;;4.95;97.38;97950.69;5032143;28;20565;-72
2021/10/16 02:44:29;;;;;;;22.02;11.63;;;5.80;99.90;;;4.90;97.75;97953.34;5049091;28;20069;-71
2021/10/16 02:46:56;;;;;;;23.52;12.80;;;5.80;99.90;;;4.85;98.20;97951.72;5041096;28;20471;-71
2021/10/16 02:49:23;;;;;;;20.00;11.35;;;5.70;99.90;;;4.86;98.82;97946.56;5050150;28;20143;-73
2021/10/16 02:51:50;;;;;;;24.10;12.48;;;5.70;99.90;;;4.98;98.44;97948.94;5046743;28;20139;-73
2021/10/16 02:54:17;;;;;;;16.67;9.48;;;5.70;99.90;;;4.90;97.78;97948.19;5041089;28;20486;-73
2021/10/16 02:56:44;;;;;;;30.92;12.88;;;5.80;99.90;;;4.93;97.95;97949.91;5047311;28;20127;-73
2021/10/16 02:59:12;;;;;;;43.97;15.30;;;5.70;99.90;;;4.90;98.43;97952.50;5033699;28;20147;-73
2021/10/16 03:01:39;;;;;;;39.80;13.50;;;5.70;99.90;;;4.97;98.47;97952.41;5048450;28;20543;-73
2021/10/16 03:04:07;;;;;;;26.27;12.40;;;5.70;99.90;;;5.05;97.59;97954.03;5044980;28;20094;-73
2021/10/16 03:06:34;;;;;;;90.57;13.55;;;5.80;99.90;;;4.84;96.85;97953.44;5051079;28;20592;-73
2021/10/16 03:09:02;;;;;;;29.58;11.98;;;5.70;99.90;;;4.85;97.18;97950.00;5041411;28;20152;-73
2021/10/16 03:11:28;;;;;;;36.58;12.77;;;5.60;99.90;;;4.83;97.17;97962.00;5047755;28;20466;-72
2021/10/16 03:13:58;;;;;;;20.73;11.88;;;5.60;99.90;;;4.79;97.41;97962.97;5050394;28;20449;-73
2021/10/16 03:16:25;;;;;;;67.18;14.52;;;5.60;99.90;;;4.69;97.34;97966.50;5047359;28;20136;-72
2021/10/16 03:18:53;;;;;;;91.43;16.30;;;5.50;99.90;;;4.64;97.97;97963.16;5038895;28;20112;-73
2021/10/16 03:21:20;;;;;;;23.02;13.30;;;5.50;99.90;;;4.71;98.11;97964.75;5041984;28;20091;-73
2021/10/16 03:23:48;;;;;;;69.18;17.05;;;5.50;99.90;;;4.60;98.11;97963.16;5047643;28;20078;-73
2021/10/16 03:26:15;;;;;;;16.00;9.25;;;5.40;99.90;;;4.46;97.20;97965.06;5044363;28;20140;-73
2021/10/16 03:28:42;;;;;;;30.98;13.63;;;5.40;99.90;;;4.35;97.00;97962.59;5039314;28;20136;-73
2021/10/16 03:31:09;;;;;;;46.78;15.40;;;5.30;99.90;;;4.34;98.69;97967.78;5044104;28;20127;-73
2021/10/16 03:33:36;;;;;;;32.00;13.73;;;5.30;99.90;;;4.48;98.96;97970.19;5040817;28;20129;-73
2021/10/16 03:36:05;;;;;;;30.83;14.48;;;;;;;4.66;99.55;97969.13;5044396;28;20076;-73
2021/10/16 03:38:32;;;;;;;51.58;15.52;;;5.60;99.90;;;4.74;99.04;97967.28;5046148;28;20083;-73
2021/10/16 03:41:23;;;;;;;43.50;13.95;;;;;;;4.73;97.71;97966.44;5041773;28;20068;-73
2021/10/16 03:43:52;;;;;;;33.83;15.00;;;;;;;4.79;98.45;97965.53;5032792;28;20128;-73
2021/10/16 03:46:20;;;;;;;43.17;15.60;;;;;;;4.84;97.99;97963.72;5048867;28;20136;-73
2021/10/16 03:48:48;;;;;;;51.33;14.55;;;;;;;4.89;98.15;97969.66;5046661;28;20043;-73
2021/10/16 03:51:15;;;;;;;41.33;12.82;;;;;;;4.88;98.08;97967.97;5044970;28;20516;-73
2021/10/16 03:53:43;;;;;;;28.30;10.25;;;;;;;4.94;97.70;97965.28;5047184;28;20049;-73
2021/10/16 03:56:13;;;;;;;54.55;13.70;;;;;;;4.83;96.69;97964.59;5040942;28;20055;-73
2021/10/16 03:58:40;;;;;;;178.32;15.30;;;;;;;4.77;96.25;97967.25;5045419;28;20083;-73
2021/10/16 04:01:08;;;;;;;261.25;21.65;;;;;;;4.65;97.52;97967.41;5037756;28;20069;-73
2021/10/16 04:03:37;;;;;;;312.02;23.92;;;;;;;4.71;98.78;97967.34;5050715;28;20127;-71
2021/10/16 04:06:04;;;;;;;211.55;18.65;;;;;;;4.73;98.98;97960.44;5034725;28;20136;-71
2021/10/16 04:08:32;;;;;;;207.45;21.45;;;;;;;4.82;98.97;97962.91;5045253;28;20059;-73
2021/10/16 04:10:59;;;;;;;145.90;16.92;;;;;;;4.80;98.96;97959.50;5045238;28;20420;-73
2021/10/16 04:13:27;;;;;;;195.25;16.92;;;;;;;4.83;98.92;97964.59;5046810;28;20099;-73
2021/10/16 04:15:54;;;;;;;196.02;16.30;;;;;;;4.86;98.45;97964.56;5045317;28;20045;-71
2021/10/16 04:18:22;;;;;;;252.48;17.45;;;;;;;4.82;98.64;97968.88;5040912;28;20045;-73
2021/10/16 04:20:49;;;;;;;317.00;20.38;;;;;;;4.87;98.88;97967.97;5041752;28;20085;-73
2021/10/16 04:23:16;;;;;;;347.48;22.65;;;;;;;4.86;99.25;97964.56;5046335;28;20049;-71
2021/10/16 04:25:46;;;;;;;308.42;21.35;;;;;;;4.79;99.14;97962.97;5047184;28;20516;-73
2021/10/16 04:28:14;;;;;;;251.18;21.95;;;;;;;4.87;99.24;97966.25;5046614;28;20124;-73
2021/10/16 04:30:44;;;;;;;78.57;11.48;;;;;;;4.90;99.22;97958.47;5043010;28;20140;-73
2021/10/16 04:33:11;;;;;;;35.58;9.13;;;;;;;4.96;98.66;97958.41;5044296;28;20051;-73
2021/10/16 04:35:40;;;;;;;18.00;8.15;;;6.00;99.90;;;4.92;96.91;97961.88;5042834;28;20577;-71
2021/10/16 04:38:08;;;;;;;53.70;9.30;;;6.00;99.90;;;4.77;95.58;97962.13;5045671;28;20045;-73
2021/10/16 04:40:36;;;;;;;17.63;7.53;;;6.00;99.90;;;4.91;95.68;97960.19;5041785;28;20045;-73
2021/10/16 04:43:06;;;;;;;59.85;9.95;;;5.90;99.90;;;4.97;94.88;97962.69;5044007;28;20572;-72
2021/10/16 04:45:34;;;;;;;32.63;9.13;;;5.90;99.90;;;4.88;96.07;97965.41;5042224;28;20049;-72
2021/10/16 04:48:01;;;;;;;20.40;8.02;;;5.80;99.90;;;4.96;95.26;97962.72;5041081;28;20457;-72
2021/10/16 04:50:29;;;;;;;13.38;7.70;;;5.80;99.90;;;4.63;95.18;97964.88;5039953;28;20151;-72
2021/10/16 04:52:55;;;;;;;110.80;13.40;;;5.70;99.90;;;4.49;95.34;97969.31;5043159;28;20233;-72
2021/10/16 04:55:23;;;;;;;122.22;15.00;;;5.60;99.90;;;4.36;95.55;97966.06;5046616;28;20064;-72
2021/10/16 04:57:50;;;;;;;29.65;10.10;;;5.40;99.90;;;4.39;95.63;97966.84;5031271;28;20038;-72
2021/10/16 05:00:18;;;;;;;23.38;9.38;;;5.30;99.90;;;4.26;96.03;97962.72;5038617;28;20137;-72
2021/10/16 05:02:44;;;;;;;48.15;10.52;;;5.20;99.90;;;4.37;96.98;97967.75;5038524;28;20071;-72
2021/10/16 05:05:12;;;;;;;32.22;10.73;;;5.20;99.90;;;4.34;96.44;97963.50;5047675;28;20083;-72
2021/10/16 05:07:39;;;;;;;14.57;8.65;;;5.20;99.90;;;4.36;96.08;97964.31;5045738;28;20132;-72
2021/10/16 05:10:06;;;;;;;15.13;8.52;;;5.20;99.90;;;4.37;94.94;97965.16;5044819;28;20110;-72
2021/10/16 05:12:33;;;;;;;8.98;5.60;;;5.20;99.90;;;4.20;93.72;97965.38;5050007;28;20572;-72
2021/10/16 05:15:00;;;;;;;12.15;6.32;;;5.20;99.90;;;4.36;92.99;97969.47;5041562;28;20057;-72
2021/10/16 05:17:28;;;;;;;13.93;7.95;;;5.20;99.90;;;4.29;94.07;97974.66;5047026;28;20049;-72
2021/10/16 05:19:54;;;;;;;17.23;9.57;;;5.10;99.90;;;4.17;95.34;97975.66;5050335;28;20124;-72
2021/10/16 05:22:21;;;;;;;13.50;8.45;;;5.10;99.90;;;4.25;95.35;97968.75;5051615;28;20136;-72
2021/10/16 05:24:49;;;;;;;12.88;7.43;;;5.20;99.90;;;4.28;96.07;97973.00;5051822;28;20132;-72
2021/10/16 05:27:15;;;;;;;20.05;7.88;;;5.30;99.90;;;4.30;94.40;97971.25;5052726;28;20124;-72
2021/10/16 05:29:42;;;;;;;17.13;7.95;;;5.30;99.90;;;4.30;95.36;97969.53;5044245;28;20130;-72
2021/10/16 05:32:09;;;;;;;13.50;8.07;;;5.20;99.90;;;4.34;95.46;97972.94;5044962;28;20104;-72
2021/10/16 05:34:36;;;;;;;15.65;8.52;;;5.30;99.90;;;4.29;95.45;97974.66;5043712;28;20145;-72
2021/10/16 05:37:04;;;;;;;11.70;7.13;;;5.40;99.90;;;4.45;95.12;97978.78;5052127;28;20185;-72
2021/10/16 05:39:31;;;;;;;8.82;5.95;;;5.40;99.90;;;4.40;94.25;97977.97;5043689;28;20300;-72
2021/10/16 05:41:57;;;;;;;12.80;7.43;;;5.50;99.90;;;4.49;93.49;97982.16;5045598;28;20081;-72
2021/10/16 05:44:25;;;;;;;11.50;7.00;;;5.50;99.90;;;4.49;93.90;97985.56;5040427;28;20187;-72
2021/10/16 05:46:52;;;;;;;14.30;7.63;;;5.50;99.90;;;4.58;94.87;97982.94;5048091;28;20088;-72
2021/10/16 05:49:19;;;;;;;13.35;8.50;;;5.60;99.90;;;4.56;94.73;97989.81;5044266;28;20132;-72
2021/10/16 05:51:46;;;;;;;14.73;7.68;;;5.70;99.90;;;4.64;94.59;97984.56;5049047;28;20045;-71
2021/10/16 05:54:13;;;;;;;16.67;10.20;;;5.70;99.90;;;4.73;95.65;97981.88;5050661;28;20059;-72
2021/10/16 05:56:40;;;;;;;14.95;8.20;;;5.80;99.90;;;4.80;95.75;97990.34;5044662;28;20059;-72
2021/10/16 05:59:07;;;;;;;13.10;6.68;;;5.80;99.90;;;4.77;95.53;97982.69;5041093;28;20492;-72
2021/10/16 06:01:34;;;;;;;13.13;7.07;;;5.90;99.90;;;4.65;96.33;97993.13;5042562;28;20120;-72
2021/10/16 06:04:01;;;;;;;10.23;6.55;;;6.00;99.90;;;4.77;95.21;97993.81;5042579;28;20215;-72
2021/10/16 06:06:28;;;;;;;14.27;7.10;;;6.00;99.90;;;4.95;94.74;97991.88;5049008;28;20123;-72
2021/10/16 06:08:55;;;;;;;13.50;6.03;;;6.10;99.90;;;5.08;94.33;97993.41;5050309;28;20155;-72
2021/10/16 06:11:22;;;;;;;17.95;10.13;;;6.10;99.90;;;5.10;94.85;97998.53;5039182;28;20128;-72
2021/10/16 06:13:49;;;;;;;13.15;8.13;;;6.20;99.90;;;5.22;94.81;97995.78;5051644;28;20079;-72
2021/10/16 06:16:16;;;;;;;13.75;7.75;;;6.30;99.90;;;5.38;94.16;98005.00;5050950;28;20517;-72
2021/10/16 06:18:45;;;;;;;20.60;11.43;;;6.40;99.90;;;5.58;93.95;98003.81;5044181;28;20041;-72
2021/10/16 06:21:13;;;;;;;13.88;8.57;;;6.50;99.90;;;5.58;93.45;98009.81;5042727;28;20135;-72
2021/10/16 06:23:40;;;;;;;10.38;7.10;;;6.50;99.90;;;5.38;93.89;98007.56;5044469;28;20102;-72
2021/10/16 06:26:07;;;;;;;18.77;9.88;;;6.60;99.90;;;5.54;93.55;98012.47;5045262;28;20190;-72
2021/10/16 06:28:35;;;;;;;14.15;8.40;;;6.70;99.90;;;5.49;93.64;98011.69;5046902;28;20084;-71
2021/10/16 06:31:02;;;;;;;13.70;8.30;;;6.70;99.90;;;5.74;93.56;98012.16;5047769;28;20473;-72
2021/10/16 06:33:29;;;;;;;18.02;9.25;;;6.80;99.90;;;5.89;93.68;98017.06;5040936;28;20564;-72
2021/10/16 06:35:59;;;;;;;12.45;6.78;;;6.90;99.90;;;5.95;93.37;98013.56;5050769;28;20045;-72
2021/10/16 06:38:26;;;;;;;11.57;8.20;;;7.00;99.90;;;5.84;94.14;98022.28;5042979;28;20415;-72
2021/10/16 06:40:53;;;;;;;18.23;11.75;;;7.10;99.90;;;6.15;93.81;98016.63;5044204;28;20091;-72
2021/10/16 06:43:20;;;;;;;17.70;10.25;;;7.20;99.90;;;6.30;93.58;98023.25;5050218;28;20139;-72
2021/10/16 06:45:47;;;;;;;18.83;11.88;;;7.40;99.90;;;6.53;93.33;98014.25;5046614;28;20585;-72
2021/10/16 06:48:14;;;;;;;16.73;10.20;;;7.50;99.90;;;6.46;93.73;98021.25;5046759;28;20168;-72
2021/10/16 06:50:41;;;;;;;20.45;9.90;;;7.60;99.90;;;6.65;93.57;98019.16;5048477;28;20098;-72
2021/10/16 06:53:08;;;;;;;14.52;8.50;;;7.70;99.90;;;6.81;92.96;98017.94;5037466;28;20077;-71
2021/10/16 06:55:35;;;;;;;14.45;9.63;;;7.90;99.90;;;6.85;92.91;98018.75;5036183;28;20135;-72
2021/10/16 06:58:02;;;;;;;22.30;11.18;;;7.90;99.90;;;6.84;93.64;98015.31;5048488;28;20092;-72
2021/10/16 07:00:29;;;;;;;16.90;9.32;;;8.00;99.90;;;6.79;93.36;98018.88;5036023;28;20152;-72
2021/10/16 07:02:56;;;;;;;13.93;9.30;;;8.10;99.90;;;6.91;92.99;98023.75;5050979;28;20049;-72
2021/10/16 07:05:23;;;;;;;15.48;8.43;;;8.00;99.90;;;6.71;93.84;98024.19;5044840;28;20051;-72
2021/10/16 07:07:50;;;;;;;17.02;9.05;;;8.00;99.90;;;6.71;93.94;98021.63;5047445;28;20044;-72
2021/10/16 07:10:17;;;;;;;20.27;9.52;;;7.90;99.90;;;6.62;93.72;98016.63;5044865;28;20133;-72
2021/10/16 07:12:44;;;;;;;15.13;7.60;;;7.80;99.90;;;6.77;93.65;98025.78;5043400;28;20077;-72
2021/10/16 07:15:11;;;;;;;19.73;7.70;;;7.70;99.90;;;6.62;93.22;98022.63;5038747;28;20136;-72
2021/10/16 07:17:38;;;;;;;15.48;8.60;;;7.70;99.90;;;6.53;93.23;98025.41;5046244;28;20061;-72
2021/10/16 07:20:06;;;;;;;15.23;8.80;;;7.60;99.90;;;6.53;92.69;98024.56;5045455;28;20442;-72
2021/10/16 07:22:33;;;;;;;19.83;9.63;;;7.60;99.90;;;6.57;92.84;98036.50;5034324;28;20076;-72
2021/10/16 07:25:00;;;;;;;14.95;9.15;;;7.50;99.90;;;6.56;93.48;98040.81;5038164;28;20167;-72
2021/10/16 07:27:27;;;;;;;17.45;10.27;;;7.60;99.90;;;6.72;93.19;98035.34;5050329;28;20478;-72
2021/10/16 07:29:55;;;;;;;14.93;8.20;;;7.60;99.90;;;6.80;93.11;98034.31;5039498;28;20141;-72
2021/10/16 07:32:22;;;;;;;15.00;7.32;;;7.70;99.90;;;6.81;92.65;98036.00;5048813;28;20049;-72
2021/10/16 07:34:49;;;;;;;13.25;8.55;;;7.80;99.90;;;7.71;91.88;98033.19;5044203;28;20056;-72
2021/10/16 07:37:15;;;;;;;20.55;8.60;;;8.20;99.90;;;8.36;86.94;98041.91;5045112;28;20401;-72
2021/10/16 07:39:42;;;;;;;12.18;7.13;;;8.70;99.90;;;9.05;85.54;98031.41;5035239;28;20443;-72
2021/10/16 07:42:10;;;;;;;10.90;6.03;;;9.50;99.90;;;9.67;79.99;98039.06;5039841;28;20128;-72
2021/10/16 07:44:36;;;;;;;12.13;5.97;;;10.20;99.90;;;10.49;79.39;98033.75;5041551;28;20139;-72
2021/10/16 07:47:04;;;;;;;13.35;6.53;;;10.60;99.90;;;10.92;78.98;98033.06;5048699;28;20128;-73
2021/10/16 07:49:31;;;;;;;11.98;5.47;;;11.20;99.90;;;11.03;79.60;98032.69;5042124;28;20131;-73
2021/10/16 07:51:58;;;;;;;7.80;4.38;;;11.80;99.90;;;11.32;79.62;98033.34;5043720;28;20141;-73
2021/10/16 07:54:25;;;;;;;6.70;3.90;;;12.30;99.90;;;11.67;77.35;98034.56;5042911;28;20049;-73
2021/10/16 07:56:52;;;;;;;7.85;3.75;;;12.80;99.90;;;11.70;76.35;98037.06;5042932;28;20163;-72
2021/10/16 07:59:19;;;;;;;8.52;3.85;;;13.10;99.90;;;11.99;75.67;98043.69;5047621;28;20410;-71
2021/10/16 08:01:46;;;;;;;7.80;4.60;;;13.30;99.90;;;12.07;74.68;98033.84;5048832;28;20131;-73
2021/10/16 08:04:13;;;;;;;7.40;3.55;;;13.60;99.90;;;12.92;72.73;98031.03;5046104;28;20056;-73
2021/10/16 08:06:40;;;;;;;7.80;4.88;;;13.80;99.90;;;12.92;68.98;98033.66;5045976;28;20081;-73
2021/10/16 08:09:07;;;;;;;9.85;4.25;;;13.80;99.90;;;12.52;71.46;98032.81;5045325;28;20481;-73
2021/10/16 08:11:35;;;;;;;8.55;4.75;;;13.80;99.90;;;12.13;71.99;98037.94;5044095;28;20069;-73
2021/10/16 08:14:02;;;;;;;11.13;5.07;;;13.70;99.90;;;12.85;69.24;98032.25;5049280;28;20164;-73
2021/10/16 08:16:29;;;;;;;9.20;4.68;;;13.90;99.90;;;12.76;71.54;98038.69;5040592;28;20049;-73
2021/10/16 08:18:58;;;;;;;8.75;5.28;;;14.20;99.90;;;12.96;69.93;98031.78;5047283;28;20080;-73
2021/10/16 08:21:25;;;;;;;8.35;4.47;;;14.50;99.90;;;12.44;71.45;98044.47;5048995;28;20076;-72
2021/10/16 08:23:52;;;;;;;6.22;3.95;;;14.10;99.90;;;12.11;72.26;98042.34;5050139;28;20180;-72
2021/10/16 08:26:19;;;;;;;6.18;4.55;;;14.00;99.90;;;11.19;74.07;98053.75;5047030;28;20075;-72
2021/10/16 08:28:48;;;;;;;16.00;6.32;;;13.80;99.90;;;10.42;76.55;98057.34;5049225;28;20049;-72
2021/10/16 08:31:16;;;;;;;57.53;9.02;;;12.90;99.90;;;9.64;77.87;98058.09;5040681;28;20118;-72
2021/10/16 08:33:43;;;;;;;50.13;8.07;;;11.80;99.90;;;8.58;82.54;98068.94;5042749;28;20049;-72
2021/10/16 08:36:12;;;;;;;63.33;8.40;;;11.00;99.90;;;8.63;81.81;98066.25;5045769;28;20077;-72
2021/10/16 08:38:42;;;;;;;36.72;7.93;;;10.70;99.90;;;8.59;82.00;98069.78;5029473;28;20098;-72
2021/10/16 08:41:11;;;;;;;45.10;8.07;;;10.50;99.90;;;8.36;83.88;98070.38;5028832;28;20052;-72
2021/10/16 08:43:40;;;;;;;79.75;9.30;;;10.40;99.90;;;8.32;84.42;98072.16;5028579;28;20450;-72
2021/10/16 08:46:08;;;;;;;21.58;8.32;;;10.30;99.90;;;8.31;85.36;98064.47;5053581;28;20131;-72
2021/10/16 08:48:39;;;;;;;16.77;7.78;;;10.20;99.90;;;8.46;85.81;98069.28;5044911;28;20045;-72
2021/10/16 08:51:07;;;;;;;35.67;8.90;;;10.20;99.90;;;8.14;86.49;98070.03;5028644;28;20067;-71
2021/10/16 08:53:35;;;;;;;19.67;8.23;;;10.30;99.90;;;8.24;87.08;98066.34;5048779;28;20045;-72
2021/10/16 08:56:05;;;;;;;27.30;7.97;;;10.30;99.90;;;8.27;86.80;98071.44;5033045;28;20049;-72
2021/10/16 08:58:34;;;;;;;25.95;9.30;;;10.30;99.90;;;8.24;87.04;98070.69;5028947;28;20068;-71
2021/10/16 09:01:04;;;;;;;15.77;9.55;;;10.30;99.90;;;8.37;86.95;98066.91;5027482;28;20057;-70
2021/10/16 09:03:45;;;;;;;18.13;10.82;;;10.30;99.90;;;8.55;86.80;98066.47;5035756;28;20144;-72
2021/10/16 09:06:30;;;;;;;18.23;10.88;;;10.00;99.90;;;8.25;88.10;98073.22;5033448;28;20685;-72
2021/10/16 09:09:09;;;;;;;20.45;12.20;;;10.00;99.90;;;8.19;87.95;98070.81;5033523;28;20064;-72
2021/10/16 09:11:44;;;;;;;23.08;14.50;;;9.70;99.90;;;8.31;88.66;98064.47;5038477;28;20057;-72
2021/10/16 09:14:17;;;;;;;20.48;12.80;;;9.70;99.90;;;8.52;88.51;98073.44;5041027;28;20053;-72
2021/10/16 09:16:57;;;;;;;15.73;11.05;;;9.70;99.90;;;8.55;88.00;98069.03;5038925;28;20486;-72
2021/10/16 09:19:26;;;;;;;15.02;10.85;;;9.90;99.90;;;8.52;88.88;98065.66;5040520;28;20575;-72
2021/10/16 09:22:10;;;;;;;17.80;12.18;;;9.90;99.90;;;8.65;88.96;98063.63;5047700;28;20127;-72
2021/10/16 09:24:43;;;;;;;18.75;11.73;;;9.90;99.90;;;8.60;88.43;98063.75;5043038;28;20077;-72
2021/10/16 09:27:22;;;;;;;16.98;10.95;;;9.90;99.90;;;8.61;89.04;98059.41;5029461;28;20073;-72
2021/10/16 09:30:02;;;;;;;16.67;11.23;;;9.90;99.90;;;8.93;88.28;98058.53;5035979;28;20049;-72
2021/10/16 09:32:34;;;;;;;21.10;12.27;;;9.90;99.90;;;8.84;89.06;98059.63;5040188;28;20049;-72
2021/10/16 09:35:12;;;;;;;15.88;10.52;;;9.90;99.90;;;8.94;88.98;98062.78;5034645;28;20053;-72
2021/10/16 09:37:53;;;;;;;22.58;14.32;;;9.90;99.90;;;9.02;89.01;98060.00;5030580;28;20061;-72
2021/10/16 09:40:46;;;;;;;17.63;12.45;;;10.10;99.90;;;8.99;89.09;98061.78;5040291;28;20091;-72
2021/10/16 09:43:22;;;;;;;19.02;12.38;;;10.20;99.90;;;9.15;88.79;98064.78;5036780;28;20076;-72
2021/10/16 09:46:14;;;;;;;18.92;12.20;;;10.30;99.90;;;9.17;89.70;98056.97;5046191;28;20053;-72
2021/10/16 09:48:41;;;;;;;20.48;14.15;;;10.40;99.90;;;9.12;89.55;98054.53;5033883;28;20102;-71
2021/10/16 09:51:08;;;;;;;18.58;11.57;;;10.30;99.90;;;9.19;88.92;98050.84;5040515;28;20083;-72
2021/10/16 09:53:38;;;;;;;14.73;10.35;;;10.40;99.90;;;9.45;88.38;98048.38;5036046;28;20141;-70
2021/10/16 09:56:07;;;;;;;17.10;10.18;;;10.40;99.90;;;9.62;88.67;98048.69;5034831;28;20147;-70
2021/10/16 09:58:37;;;;;;;24.02;9.70;;;10.70;99.90;;;9.62;86.46;98046.97;5042062;28;20124;-70
2021/10/16 10:01:04;;;;;;;14.98;9.38;;;10.70;99.90;;;9.87;87.13;98043.56;5043930;28;20599;-70
2021/10/16 10:03:32;;;;;;;14.68;8.35;;;11.00;99.90;;;10.09;86.15;98041.13;5042709;28;20145;-70
2021/10/16 10:05:59;;;;;;;12.13;8.02;;;11.20;99.90;;;10.25;85.99;98042.31;5049296;28;20136;-70
2021/10/16 10:08:27;;;;;;;13.05;8.63;;;11.40;99.90;;;10.58;85.91;98042.09;5038559;28;20103;-70
2021/10/16 10:10:54;;;;;;;15.18;8.88;;;11.60;99.90;;;10.73;84.87;98040.69;5037932;28;20088;-70
2021/10/16 10:13:26;;;;;;;16.42;9.35;;;11.80;99.90;;;10.29;84.71;98040.50;5039461;28;20144;-70
2021/10/16 10:15:55;;;;;;;16.27;9.25;;;11.80;99.90;;;10.43;85.20;98040.03;5035857;28;20072;-70
2021/10/16 10:21:08;;;;;;;14.07;8.48;;;11.90;99.90;;;10.56;84.67;98036.13;5045345;28;20127;-71
2021/10/16 10:23:51;;;;;;;15.00;9.45;;;11.90;99.90;;;10.64;83.94;98025.44;5041346;28;20053;-71
2021/10/16 10:26:29;;;;;;;13.98;9.63;;;11.90;99.90;;;10.58;83.84;98023.94;5036679;28;20045;-71
2021/10/16 10:29:08;;;;;;;16.80;9.93;;;11.90;99.90;;;10.60;84.29;98024.69;5044106;28;20133;-71
2021/10/16 10:31:55;;;;;;;15.73;9.93;;;11.90;99.90;;;10.40;83.10;98037.53;5031799;28;20121;-71
2021/10/16 10:34:34;;;;;;;15.95;9.48;;;11.90;99.90;;;10.51;83.86;98037.16;5040829;28;20508;-71